createdAt,value
2019-03-06T05:43:07.215Z,17.27
2019-03-06T05:45:43.689Z,16.87
2019-03-06T05:48:16.431Z,18.20
2019-03-06T05:50:45.482Z,19.03
2019-03-06T05:53:14.742Z,18.33
2019-03-06T05:55:43.898Z,19.60
2019-03-06T05:58:13.524Z,19.87
2019-03-06T06:00:42.718Z,20.33
2019-03-06T06:03:11.867Z,20.10
2019-03-06T06:05:42.047Z,17.43
2019-03-06T06:08:11.190Z,18.23
2019-03-06T06:10:40.349Z,18.33
2019-03-06T06:13:09.501Z,15.50
2019-03-06T06:15:38.626Z,12.27
2019-03-06T06:18:07.867Z,12.00
2019-03-06T06:20:37.021Z,11.40
2019-03-06T06:23:12.031Z,10.63
2019-03-06T06:25:41.264Z,11.80
2019-03-06T06:28:10.406Z,11.57
2019-03-06T06:30:39.549Z,12.83
2019-03-06T06:33:09.575Z,10.23
2019-03-06T06:35:38.881Z,10.03
2019-03-06T06:38:08.121Z,8.53
2019-03-06T06:40:37.335Z,8.63
2019-03-06T06:43:06.476Z,8.63
2019-03-06T06:45:35.991Z,9.93
2019-03-06T06:48:19.019Z,10.13
2019-03-06T06:51:02.795Z,9.47
2019-03-06T06:53:45.381Z,8.57
2019-03-06T06:57:02.977Z,9.47
2019-03-06T07:00:07.389Z,8.33
2019-03-06T07:03:22.301Z,9.03
2019-03-06T07:05:57.424Z,10.23
2019-03-06T07:08:41.223Z,8.63
2019-03-06T07:11:33.578Z,9.80
2019-03-06T07:14:27.567Z,8.73
2019-03-06T07:17:09.842Z,11.13
2019-03-06T07:19:53.219Z,9.53
2019-03-06T07:22:40.060Z,10.53
2019-03-06T07:25:28.496Z,9.87
2019-03-06T07:28:16.850Z,10.03
2019-03-06T07:30:54.961Z,8.40
2019-03-06T07:33:43.187Z,9.50
2019-03-06T07:36:40.411Z,9.27
2019-03-06T07:39:18.815Z,7.80
2019-03-06T07:42:22.215Z,10.60
2019-03-06T07:45:59.595Z,6.27
2019-03-06T07:49:07.445Z,5.57
2019-03-06T07:52:03.655Z,8.30
2019-03-06T07:54:51.933Z,8.10
2019-03-06T07:57:29.355Z,7.27
2019-03-06T07:59:58.767Z,6.60
2019-03-06T08:02:36.685Z,7.00
2019-03-06T08:05:07.666Z,6.03
2019-03-06T08:07:37.005Z,5.23
2019-03-06T08:10:12.958Z,4.63
2019-03-06T08:12:51.068Z,5.53
2019-03-06T08:15:57.778Z,3.77
2019-03-06T08:18:45.998Z,4.33
2019-03-06T08:21:37.289Z,6.23
2019-03-06T08:24:28.494Z,5.90
2019-03-06T08:26:57.953Z,5.70
2019-03-06T08:29:27.174Z,7.00
2019-03-06T08:31:59.086Z,7.10
2019-03-06T08:34:28.390Z,8.10
2019-03-06T08:36:57.764Z,9.73
2019-03-06T08:39:28.170Z,9.23
2019-03-06T08:41:57.440Z,8.13
2019-03-06T08:44:26.660Z,7.80
2019-03-06T08:47:15.658Z,9.93
2019-03-06T08:50:01.042Z,9.50
2019-03-06T08:52:36.812Z,6.63
2019-03-06T08:55:19.119Z,6.77
2019-03-06T08:57:58.128Z,8.40
2019-03-06T09:00:49.826Z,6.67
2019-03-06T09:03:29.183Z,8.03
2019-03-06T09:06:10.258Z,6.63
2019-03-06T09:08:57.065Z,5.73
2019-03-06T09:11:48.266Z,5.83
2019-03-06T09:14:51.520Z,6.77
2019-03-06T09:17:31.164Z,8.70
2019-03-06T09:20:21.845Z,5.03
2019-03-06T09:23:23.013Z,4.43
2019-03-06T09:25:57.506Z,5.23
2019-03-06T09:28:38.236Z,5.27
2019-03-06T09:31:13.733Z,3.60
2019-03-06T09:34:02.026Z,3.30
2019-03-06T09:36:47.037Z,4.27
2019-03-06T09:39:37.525Z,3.27
2019-03-06T09:42:23.821Z,2.53
2019-03-06T09:44:59.076Z,3.60
2019-03-06T09:47:59.546Z,2.50
2019-03-06T09:51:03.039Z,2.50
2019-03-06T09:53:58.603Z,3.50
2019-03-06T09:56:47.689Z,4.53
2019-03-06T09:59:30.608Z,3.70
2019-03-06T10:02:25.211Z,4.47
2019-03-06T10:05:16.379Z,2.60
2019-03-06T10:07:53.703Z,2.70
2019-03-06T10:10:58.048Z,2.10
2019-03-06T10:13:33.668Z,2.10
2019-03-06T10:16:25.365Z,3.27
2019-03-06T10:19:06.793Z,4.10
2019-03-06T10:21:36.625Z,3.33
2019-03-06T10:24:08.181Z,4.60
2019-03-06T10:26:37.433Z,4.73
2019-03-06T10:29:07.404Z,1.50
2019-03-06T10:31:38.492Z,2.77
2019-03-06T10:34:08.006Z,2.23
2019-03-06T10:36:37.240Z,2.23
2019-03-06T10:39:09.006Z,1.40
2019-03-06T10:41:38.281Z,3.43
2019-03-06T10:44:07.515Z,2.63
2019-03-06T10:46:36.852Z,1.57
2019-03-06T10:49:06.671Z,2.00
2019-03-06T10:51:35.975Z,3.23
2019-03-06T10:54:06.306Z,3.07
2019-03-06T10:56:35.862Z,2.87
2019-03-06T10:59:05.474Z,4.17
2019-03-06T11:01:36.230Z,3.50
2019-03-06T11:04:28.051Z,5.10
2019-03-06T11:06:57.316Z,4.87
2019-03-06T11:09:27.235Z,6.60
2019-03-06T11:11:56.864Z,7.07
2019-03-06T11:14:26.286Z,6.10
2019-03-06T11:16:55.568Z,7.00
2019-03-06T11:19:25.226Z,5.57
2019-03-06T11:21:54.968Z,4.80
2019-03-06T11:24:24.207Z,4.60
2019-03-06T11:26:56.353Z,3.27
2019-03-06T11:29:25.863Z,2.83
2019-03-06T11:31:55.502Z,4.50
2019-03-06T11:34:24.653Z,3.60
2019-03-06T11:36:54.531Z,4.07
2019-03-06T11:39:24.206Z,2.87
2019-03-06T11:41:53.452Z,2.97
2019-03-06T11:44:22.696Z,3.57
2019-03-06T11:46:53.121Z,4.63
2019-03-06T11:49:25.121Z,6.17
2019-03-06T11:51:55.187Z,5.30
2019-03-06T11:54:24.488Z,5.50
2019-03-06T11:56:53.756Z,2.93
2019-03-06T11:59:23.060Z,1.73
2019-03-06T12:01:52.339Z,4.60
2019-03-06T12:04:21.891Z,5.70
2019-03-06T12:06:51.359Z,6.83
2019-03-06T12:09:33.946Z,3.53
2019-03-06T12:12:04.537Z,4.17
2019-03-06T12:14:33.856Z,2.80
2019-03-06T12:17:03.273Z,2.60
2019-03-06T12:19:32.624Z,5.47
2019-03-06T12:22:02.773Z,3.10
2019-03-06T12:24:32.066Z,4.47
2019-03-06T12:27:01.354Z,3.07
2019-03-06T12:29:30.625Z,4.17
2019-03-06T12:32:00.930Z,3.00
2019-03-06T12:34:32.876Z,2.57
2019-03-06T12:37:02.069Z,2.67
2019-03-06T12:39:31.302Z,2.27
2019-03-06T12:42:02.573Z,2.63
2019-03-06T12:44:32.000Z,4.03
2019-03-06T12:47:01.290Z,5.80
2019-03-06T12:49:31.236Z,6.10
2019-03-06T12:52:00.469Z,3.50
2019-03-06T12:54:29.738Z,2.50
2019-03-06T12:56:58.942Z,3.83
2019-03-06T12:59:31.500Z,2.90
2019-03-06T13:02:03.712Z,2.63
2019-03-06T13:04:33.173Z,3.10
2019-03-06T13:07:02.481Z,1.80
2019-03-06T13:09:32.021Z,3.43
2019-03-06T13:12:04.335Z,2.53
2019-03-06T13:14:33.636Z,3.53
2019-03-06T13:17:03.155Z,2.47
2019-03-06T13:19:32.594Z,6.47
2019-03-06T13:22:10.923Z,4.97
2019-03-06T13:24:32.766Z,4.30
2019-03-06T13:27:04.996Z,3.20
2019-03-06T13:29:34.313Z,5.60
2019-03-06T13:32:11.514Z,4.83
2019-03-06T13:34:50.293Z,3.13
2019-03-06T13:37:14.506Z,3.97
2019-03-06T13:39:46.741Z,4.10
2019-03-06T13:42:15.982Z,5.40
2019-03-06T13:44:45.294Z,4.17
2019-03-06T13:47:14.462Z,5.03
2019-03-06T13:49:43.908Z,3.50
2019-03-06T13:52:14.756Z,3.60
2019-03-06T13:54:44.176Z,4.77
2019-03-06T13:57:14.764Z,4.83
2019-03-06T13:59:44.057Z,6.33
2019-03-06T14:02:13.350Z,7.13
2019-03-06T14:04:42.565Z,4.63
2019-03-06T14:07:12.717Z,6.33
2019-03-06T14:09:43.798Z,6.07
2019-03-06T14:12:13.024Z,8.87
2019-03-06T14:14:42.242Z,7.33
2019-03-06T14:17:11.464Z,7.40
2019-03-06T14:19:40.708Z,7.57
2019-03-06T14:22:09.913Z,8.47
2019-03-06T14:24:39.212Z,7.83
2019-03-06T14:27:09.746Z,6.43
2019-03-06T14:29:38.954Z,4.73
2019-03-06T14:32:14.589Z,7.60
2019-03-06T14:34:39.143Z,6.23
2019-03-06T14:37:08.536Z,6.13
2019-03-06T14:39:38.135Z,8.93
2019-03-06T14:42:07.389Z,10.07
2019-03-06T14:44:36.630Z,10.33
2019-03-06T14:47:06.278Z,9.30
2019-03-06T14:49:37.121Z,8.60
2019-03-06T14:52:07.627Z,5.63
2019-03-06T14:54:36.978Z,5.47
2019-03-06T14:57:06.227Z,4.90
2019-03-06T14:59:35.451Z,4.73
2019-03-06T15:02:04.668Z,4.50
2019-03-06T15:04:34.101Z,7.03
2019-03-06T15:07:03.304Z,3.77
2019-03-06T15:09:32.502Z,4.73
2019-03-06T15:12:01.830Z,6.17
2019-03-06T15:14:36.078Z,4.20
2019-03-06T15:17:02.893Z,3.00
2019-03-06T15:19:34.045Z,5.33
2019-03-06T15:22:03.724Z,6.23
2019-03-06T15:24:41.256Z,4.80
2019-03-06T15:27:08.523Z,4.83
2019-03-06T15:29:38.261Z,3.73
2019-03-06T15:32:07.540Z,5.00
2019-03-06T15:34:38.225Z,5.40
2019-03-06T15:37:08.125Z,5.10
2019-03-06T15:39:46.657Z,6.47
2019-03-06T15:42:13.907Z,5.07
2019-03-06T15:44:43.225Z,9.70
2019-03-06T15:47:13.285Z,7.50
2019-03-06T15:49:42.524Z,6.43
2019-03-06T15:52:12.703Z,8.77
2019-03-06T15:54:42.800Z,4.97
2019-03-06T15:57:12.300Z,6.83
2019-03-06T15:59:41.956Z,7.90
2019-03-06T16:02:11.475Z,5.60
2019-03-06T16:04:40.662Z,7.60
2019-03-06T16:07:09.894Z,5.70
2019-03-06T16:09:39.638Z,6.73
2019-03-06T16:12:09.255Z,5.80
2019-03-06T16:14:39.168Z,6.07
2019-03-06T16:17:08.326Z,6.53
2019-03-06T16:19:37.576Z,5.30
2019-03-06T16:22:07.111Z,6.53
2019-03-06T16:24:37.641Z,6.10
2019-03-06T16:27:07.141Z,8.37
2019-03-06T16:29:36.386Z,6.30
2019-03-06T16:32:05.619Z,6.97
2019-03-06T16:34:34.852Z,12.40
2019-03-06T16:37:04.773Z,9.83
2019-03-06T16:39:35.999Z,8.70
2019-03-06T16:42:05.145Z,8.47
2019-03-06T16:44:34.363Z,10.83
2019-03-06T16:47:06.918Z,6.87
2019-03-06T16:49:34.968Z,11.13
2019-03-06T16:52:04.184Z,8.43
2019-03-06T16:54:33.399Z,8.07
2019-03-06T16:57:02.657Z,13.20
2019-03-06T16:59:32.069Z,7.90
2019-03-06T17:02:02.416Z,7.73
2019-03-06T17:04:32.297Z,7.57
2019-03-06T17:07:01.535Z,8.00
2019-03-06T17:09:32.643Z,6.83
2019-03-06T17:12:04.170Z,12.27
2019-03-06T17:14:33.829Z,8.70
2019-03-06T17:17:03.753Z,12.67
2019-03-06T17:19:32.972Z,10.87
2019-03-06T17:22:03.701Z,8.20
2019-03-06T17:24:33.141Z,10.37
2019-03-06T17:27:02.475Z,9.50
2019-03-06T17:29:31.709Z,9.00
2019-03-06T17:32:01.322Z,7.83
2019-03-06T17:34:30.494Z,8.10
2019-03-06T17:37:01.299Z,8.53
2019-03-06T17:39:30.744Z,9.60
2019-03-06T17:42:02.456Z,8.27
2019-03-06T17:44:31.595Z,8.93
2019-03-06T17:47:00.827Z,8.77
2019-03-06T17:49:35.926Z,9.13
2019-03-06T17:52:07.418Z,7.70
2019-03-06T17:54:36.954Z,8.70
2019-03-06T17:57:06.334Z,7.63
2019-03-06T17:59:35.605Z,9.70
2019-03-06T18:02:05.053Z,8.00
2019-03-06T18:04:35.622Z,6.93
2019-03-06T18:07:06.639Z,7.47
2019-03-06T18:09:37.155Z,9.30
2019-03-06T18:12:07.298Z,7.20
2019-03-06T18:14:36.522Z,7.43
2019-03-06T18:17:05.819Z,10.30
2019-03-06T18:19:35.053Z,9.03
2019-03-06T18:22:04.291Z,7.53
2019-03-06T18:24:33.650Z,7.60
2019-03-06T18:27:02.861Z,8.00
2019-03-06T18:29:32.194Z,7.47
2019-03-06T18:32:01.434Z,8.67
2019-03-06T18:34:30.681Z,7.87
2019-03-06T18:37:00.098Z,7.80
2019-03-06T18:39:29.390Z,6.97
2019-03-06T18:41:58.693Z,7.37
2019-03-06T18:44:27.895Z,8.10
2019-03-06T18:46:57.298Z,9.90
2019-03-06T18:49:26.634Z,9.30
2019-03-06T18:51:55.850Z,9.80
2019-03-06T18:54:25.220Z,8.50
2019-03-06T18:56:54.723Z,9.20
2019-03-06T18:59:23.993Z,8.73
2019-03-06T19:01:55.706Z,7.37
2019-03-06T19:04:25.018Z,10.10
2019-03-06T19:06:56.030Z,8.73
2019-03-06T19:09:25.810Z,8.33
2019-03-06T19:11:55.048Z,9.10
2019-03-06T19:14:24.304Z,8.07
2019-03-06T19:16:53.451Z,7.50
2019-03-06T19:19:22.702Z,10.10
2019-03-06T19:21:52.007Z,7.40
2019-03-06T19:24:21.536Z,9.13
2019-03-06T19:26:51.151Z,9.93
2019-03-06T19:29:20.379Z,6.63
2019-03-06T19:31:49.763Z,7.20
2019-03-06T19:34:19.125Z,8.13
2019-03-06T19:36:48.286Z,7.63
2019-03-06T19:39:17.727Z,7.20
2019-03-06T19:41:47.020Z,7.93
2019-03-06T19:44:16.260Z,7.77
2019-03-06T19:46:45.486Z,7.10
2019-03-06T19:49:15.186Z,9.80
2019-03-06T19:51:51.303Z,9.93
2019-03-06T19:54:17.724Z,9.43
2019-03-06T19:56:46.851Z,14.13
2019-03-06T19:59:16.040Z,9.73
2019-03-06T20:01:45.443Z,9.07
2019-03-06T20:04:14.738Z,10.97
2019-03-06T20:06:43.963Z,9.67
2019-03-06T20:09:27.873Z,11.60
2019-03-06T20:11:57.433Z,13.40
2019-03-06T20:14:26.759Z,12.27
2019-03-06T20:16:56.144Z,10.87
2019-03-06T20:19:25.718Z,13.03
2019-03-06T20:21:54.995Z,12.70
2019-03-06T20:24:35.224Z,12.53
2019-03-06T20:27:05.403Z,12.10
2019-03-06T20:29:35.633Z,11.47
2019-03-06T20:32:11.341Z,10.97
2019-03-06T20:34:45.028Z,10.67
2019-03-06T20:37:15.809Z,12.80
2019-03-06T20:39:52.343Z,8.03
2019-03-06T20:42:22.266Z,11.30
2019-03-06T20:44:52.194Z,10.67
2019-03-06T20:47:24.279Z,15.50
2019-03-06T20:49:53.654Z,14.10
2019-03-06T20:52:31.365Z,10.47
2019-03-06T20:54:56.836Z,13.33
2019-03-06T20:57:36.111Z,10.63
2019-03-06T21:00:19.631Z,12.37
2019-03-06T21:02:54.354Z,11.43
2019-03-06T21:05:25.690Z,10.87
2019-03-06T21:08:00.364Z,9.47
2019-03-06T21:10:33.085Z,13.87
2019-03-06T21:13:08.073Z,10.87
2019-03-06T21:15:44.240Z,10.07
2019-03-06T21:18:28.215Z,10.27
2019-03-06T21:21:02.335Z,9.37
2019-03-06T21:23:40.348Z,10.53
2019-03-06T21:26:15.289Z,10.03
2019-03-06T21:28:49.859Z,10.17
2019-03-06T21:31:25.499Z,9.80
2019-03-06T21:34:00.861Z,10.57
2019-03-06T21:36:30.106Z,11.50
2019-03-06T21:38:59.374Z,10.70
2019-03-06T21:41:29.251Z,11.90
2019-03-06T21:43:58.959Z,11.57
2019-03-06T21:46:28.294Z,11.53
2019-03-06T21:48:57.628Z,11.80
2019-03-06T21:51:26.928Z,10.33
2019-03-06T21:53:56.642Z,10.67
2019-03-06T21:56:28.512Z,12.80
2019-03-06T21:58:58.321Z,11.67
2019-03-06T22:01:27.649Z,12.97
2019-03-06T22:03:56.888Z,12.03
2019-03-06T22:06:26.140Z,11.33
2019-03-06T22:08:55.438Z,12.63
2019-03-06T22:11:24.725Z,11.13
2019-03-06T22:13:54.204Z,12.73
2019-03-06T22:16:23.502Z,12.37
2019-03-06T22:18:53.246Z,14.10
2019-03-06T22:21:22.716Z,13.50
2019-03-06T22:23:52.198Z,12.43
2019-03-06T22:26:21.556Z,12.37
2019-03-06T22:28:50.770Z,12.07
